Hobart, OK

10:00 PM CDT on October 22, 2014 (GMT -0500)
Hobart Municipal | Change Station
CLOSE
Current Station
Airport
Location: Hobart,
Elevation: 1565 ft
Nearby Weather Stations

Elev 1565 ft 34.99 °N, 99.05 °W | Updated 7 minutes ago

Mostly Cloudy
Mostly Cloudy
61 °F
Feels Like 61 °F
N
5
Wind Variable Wind from ESE

Today
High -- | Low -- °F
--% Chance of Precip.
Yesterday
High -- | Low -- °F
Precip. -- in
7:48 AM 6:52 PM
Waning Crescent, 1% visible
Pressure 30.09 in
Visibility 3.0 miles
Clouds Overcast 11000 ft
Dew Point 60 °F
Humidity 97%
Rainfall 0.08 in
Snow Depth Not available.
UV 0 out of 12
Pollen 5.50 out of 12
Air Quality Not available.
Flu Activity No Activity
METAR KHBR 230253Z AUTO 12004KT 3SM BR OVC110 16/16 A3012 RMK AO2 SLP190 60000 T01610156 51002

More Conditions Fewer Conditions

Pressure 30.09 in
Visibility 3.0 miles
Clouds Overcast 11000 ft
Dew Point 60 °F
Humidity 97%
Rainfall 0.08 in
Snow Depth Not available.
UV 0 out of 12
Pollen 5.50 out of 12
Air Quality Not available.
Flu Activity No Activity
METAR KHBR 230253Z AUTO 12004KT 3SM BR OVC110 16/16 A3012 RMK AO2 SLP190 60000 T01610156 51002

More Conditions Fewer Conditions

10-Day Weather Forecast

Almanac

Astronomy

Oct. 22, 2014 Rise Set
Actual Time 7:48 AM CDT 6:52 PM CDT
Civil Twilight 7:22 AM CDT 7:18 PM CDT
Nautical Twilight 6:53 AM CDT 7:48 PM CDT
Astronomical Twilight 6:23 AM CDT 8:17 PM CDT
Moon 6:34 AM CDT (10/22) 6:18 PM CDT (10/22)
Length of Visible Light 11h 55m
Length of Day
11h 04m
Tomorrow will be 2m 3s shorter.
Waning Crescent, 1% of the Moon is Illuminated
Today
Waning Crescent
Oct 23
New
Oct 30
First Quarter
Nov 6
Full
Nov 14
Last Quarter

Today's Extremes

State Highs State Lows

Community

WunderPhotos

Upload Photos

1,764,121 photos uploaded!

Nearby

Snow Depth

Station Depth Elevation
No new snow has been reported.

Earthquake Activity

City Distance Mag. Time & Date
Mooreland, Oklahoma 102 miles 2.8 5:31 PM CDT
2014-10-22
Mooreland, Oklahoma 101 miles 2.5 11:19 AM CDT
2014-10-22
Mooreland, Oklahoma 102 miles 2.8 11:04 AM CDT
2014-10-22
Mooreland, Oklahoma 102 miles 3.5 10:58 AM CDT
2014-10-22
Minimum magnitude displayed is 2.5.

Coastal Water Temperatures

Place Temperature
No Stations Reporting

Nearby Weather Stations